sensor_id;sensor_type;location;lat;lon;timestamp;P1;durP1;ratioP1;P2;durP2;ratioP2
2602;SDS011;1311;47.966;7.958;2023-09-30T00:01:23;6.80;;;3.60;;
2602;SDS011;1311;47.966;7.958;2023-09-30T00:03:50;6.37;;;3.70;;
2602;SDS011;1311;47.966;7.958;2023-09-30T00:06:17;6.77;;;4.03;;
2602;SDS011;1311;47.966;7.958;2023-09-30T00:08:44;9.70;;;4.90;;
2602;SDS011;1311;47.966;7.958;2023-09-30T00:11:14;5.70;;;3.40;;
2602;SDS011;1311;47.966;7.958;2023-09-30T00:13:42;8.07;;;4.20;;
2602;SDS011;1311;47.966;7.958;2023-09-30T00:16:09;7.00;;;4.37;;
2602;SDS011;1311;47.966;7.958;2023-09-30T00:18:35;8.63;;;4.30;;
2602;SDS011;1311;47.966;7.958;2023-09-30T00:21:02;9.57;;;5.03;;
2602;SDS011;1311;47.966;7.958;2023-09-30T00:23:29;8.47;;;4.17;;
2602;SDS011;1311;47.966;7.958;2023-09-30T00:25:56;10.87;;;4.07;;
2602;SDS011;1311;47.966;7.958;2023-09-30T00:28:24;8.60;;;3.93;;
2602;SDS011;1311;47.966;7.958;2023-09-30T00:30:51;6.87;;;3.90;;
2602;SDS011;1311;47.966;7.958;2023-09-30T00:33:17;11.67;;;4.13;;
2602;SDS011;1311;47.966;7.958;2023-09-30T00:35:44;7.90;;;3.80;;
2602;SDS011;1311;47.966;7.958;2023-09-30T00:38:11;7.70;;;4.13;;
2602;SDS011;1311;47.966;7.958;2023-09-30T00:40:39;7.60;;;3.80;;
2602;SDS011;1311;47.966;7.958;2023-09-30T00:43:17;13.13;;;4.90;;
2602;SDS011;1311;47.966;7.958;2023-09-30T00:45:45;10.70;;;4.40;;
2602;SDS011;1311;47.966;7.958;2023-09-30T00:48:14;9.27;;;4.43;;
2602;SDS011;1311;47.966;7.958;2023-09-30T00:50:41;10.53;;;4.20;;
2602;SDS011;1311;47.966;7.958;2023-09-30T00:53:07;10.80;;;3.70;;
2602;SDS011;1311;47.966;7.958;2023-09-30T00:55:35;5.80;;;3.90;;
2602;SDS011;1311;47.966;7.958;2023-09-30T00:58:03;7.33;;;3.80;;
2602;SDS011;1311;47.966;7.958;2023-09-30T01:00:30;6.13;;;3.70;;
2602;SDS011;1311;47.966;7.958;2023-09-30T01:02:58;7.93;;;3.70;;
2602;SDS011;1311;47.966;7.958;2023-09-30T01:05:29;6.80;;;4.30;;
2602;SDS011;1311;47.966;7.958;2023-09-30T01:07:55;9.27;;;4.03;;
2602;SDS011;1311;47.966;7.958;2023-09-30T01:10:22;7.87;;;3.83;;
2602;SDS011;1311;47.966;7.958;2023-09-30T01:12:50;11.40;;;4.07;;
2602;SDS011;1311;47.966;7.958;2023-09-30T01:15:16;5.90;;;3.30;;
2602;SDS011;1311;47.966;7.958;2023-09-30T01:17:43;8.33;;;4.60;;
2602;SDS011;1311;47.966;7.958;2023-09-30T01:20:12;7.23;;;3.67;;
2602;SDS011;1311;47.966;7.958;2023-09-30T01:22:43;8.10;;;4.30;;
2602;SDS011;1311;47.966;7.958;2023-09-30T01:25:10;7.27;;;3.90;;
2602;SDS011;1311;47.966;7.958;2023-09-30T01:27:37;6.67;;;3.50;;
2602;SDS011;1311;47.966;7.958;2023-09-30T01:30:04;5.63;;;3.70;;
2602;SDS011;1311;47.966;7.958;2023-09-30T01:32:35;8.67;;;3.60;;
2602;SDS011;1311;47.966;7.958;2023-09-30T01:35:02;7.03;;;3.80;;
2602;SDS011;1311;47.966;7.958;2023-09-30T01:37:30;7.63;;;4.27;;
2602;SDS011;1311;47.966;7.958;2023-09-30T01:39:58;7.20;;;4.27;;
2602;SDS011;1311;47.966;7.958;2023-09-30T01:42:25;6.73;;;3.90;;
2602;SDS011;1311;47.966;7.958;2023-09-30T01:44:52;9.27;;;4.20;;
2602;SDS011;1311;47.966;7.958;2023-09-30T01:47:19;8.23;;;4.50;;
2602;SDS011;1311;47.966;7.958;2023-09-30T01:49:46;8.40;;;4.23;;
2602;SDS011;1311;47.966;7.958;2023-09-30T01:52:12;7.20;;;3.80;;
2602;SDS011;1311;47.966;7.958;2023-09-30T01:54:40;7.10;;;3.50;;
2602;SDS011;1311;47.966;7.958;2023-09-30T01:57:08;10.07;;;4.97;;
2602;SDS011;1311;47.966;7.958;2023-09-30T01:59:35;9.40;;;4.00;;
2602;SDS011;1311;47.966;7.958;2023-09-30T02:02:01;6.73;;;3.83;;
2602;SDS011;1311;47.966;7.958;2023-09-30T02:04:28;7.13;;;3.50;;
2602;SDS011;1311;47.966;7.958;2023-09-30T02:06:56;6.13;;;3.63;;
2602;SDS011;1311;47.966;7.958;2023-09-30T02:09:22;5.30;;;3.30;;
2602;SDS011;1311;47.966;7.958;2023-09-30T02:11:49;7.10;;;3.50;;
2602;SDS011;1311;47.966;7.958;2023-09-30T02:14:17;10.90;;;4.07;;
2602;SDS011;1311;47.966;7.958;2023-09-30T02:16:44;5.07;;;3.20;;
2602;SDS011;1311;47.966;7.958;2023-09-30T02:19:11;8.10;;;3.87;;
2602;SDS011;1311;47.966;7.958;2023-09-30T02:21:38;7.70;;;3.77;;
2602;SDS011;1311;47.966;7.958;2023-09-30T02:24:05;5.30;;;3.40;;
2602;SDS011;1311;47.966;7.958;2023-09-30T02:26:32;8.80;;;4.13;;
2602;SDS011;1311;47.966;7.958;2023-09-30T02:28:59;8.27;;;3.80;;
2602;SDS011;1311;47.966;7.958;2023-09-30T02:31:27;5.33;;;3.17;;
2602;SDS011;1311;47.966;7.958;2023-09-30T02:33:54;8.27;;;3.57;;
2602;SDS011;1311;47.966;7.958;2023-09-30T02:36:21;5.60;;;3.10;;
2602;SDS011;1311;47.966;7.958;2023-09-30T02:38:47;5.93;;;3.13;;
2602;SDS011;1311;47.966;7.958;2023-09-30T02:41:15;6.40;;;3.23;;
2602;SDS011;1311;47.966;7.958;2023-09-30T02:43:42;7.53;;;4.10;;
2602;SDS011;1311;47.966;7.958;2023-09-30T02:46:09;9.20;;;3.47;;
2602;SDS011;1311;47.966;7.958;2023-09-30T02:48:38;5.77;;;3.43;;
2602;SDS011;1311;47.966;7.958;2023-09-30T02:51:08;7.73;;;3.30;;
2602;SDS011;1311;47.966;7.958;2023-09-30T02:53:36;8.43;;;3.50;;
2602;SDS011;1311;47.966;7.958;2023-09-30T02:56:03;6.80;;;3.10;;
2602;SDS011;1311;47.966;7.958;2023-09-30T02:58:29;5.97;;;3.33;;
2602;SDS011;1311;47.966;7.958;2023-09-30T03:00:56;4.60;;;2.97;;
2602;SDS011;1311;47.966;7.958;2023-09-30T03:03:23;8.20;;;3.43;;
2602;SDS011;1311;47.966;7.958;2023-09-30T03:05:52;4.50;;;2.60;;
2602;SDS011;1311;47.966;7.958;2023-09-30T03:08:19;7.40;;;2.80;;
2602;SDS011;1311;47.966;7.958;2023-09-30T03:10:47;9.60;;;3.40;;
2602;SDS011;1311;47.966;7.958;2023-09-30T03:13:14;6.60;;;3.40;;
2602;SDS011;1311;47.966;7.958;2023-09-30T03:15:40;10.30;;;4.10;;
2602;SDS011;1311;47.966;7.958;2023-09-30T03:18:07;5.83;;;3.40;;
2602;SDS011;1311;47.966;7.958;2023-09-30T03:20:34;4.37;;;3.23;;
2602;SDS011;1311;47.966;7.958;2023-09-30T03:23:06;6.67;;;3.23;;
2602;SDS011;1311;47.966;7.958;2023-09-30T03:25:33;5.27;;;3.20;;
2602;SDS011;1311;47.966;7.958;2023-09-30T03:28:00;7.83;;;3.23;;
2602;SDS011;1311;47.966;7.958;2023-09-30T03:30:27;6.90;;;3.60;;
2602;SDS011;1311;47.966;7.958;2023-09-30T03:32:54;6.20;;;3.40;;
2602;SDS011;1311;47.966;7.958;2023-09-30T03:35:22;5.83;;;3.10;;
2602;SDS011;1311;47.966;7.958;2023-09-30T03:37:49;8.77;;;3.83;;
2602;SDS011;1311;47.966;7.958;2023-09-30T03:40:17;8.30;;;3.50;;
2602;SDS011;1311;47.966;7.958;2023-09-30T03:42:45;6.87;;;3.50;;
2602;SDS011;1311;47.966;7.958;2023-09-30T03:45:14;6.70;;;3.23;;
2602;SDS011;1311;47.966;7.958;2023-09-30T03:47:41;6.83;;;3.13;;
2602;SDS011;1311;47.966;7.958;2023-09-30T03:50:09;5.60;;;3.10;;
2602;SDS011;1311;47.966;7.958;2023-09-30T03:52:39;5.33;;;2.97;;
2602;SDS011;1311;47.966;7.958;2023-09-30T03:55:09;6.03;;;2.80;;
2602;SDS011;1311;47.966;7.958;2023-09-30T03:57:38;4.53;;;2.77;;
2602;SDS011;1311;47.966;7.958;2023-09-30T04:00:05;6.97;;;2.60;;
2602;SDS011;1311;47.966;7.958;2023-09-30T04:02:36;7.37;;;3.30;;
2602;SDS011;1311;47.966;7.958;2023-09-30T04:05:03;6.23;;;4.03;;
2602;SDS011;1311;47.966;7.958;2023-09-30T04:07:30;6.10;;;3.10;;
2602;SDS011;1311;47.966;7.958;2023-09-30T04:09:57;5.90;;;3.10;;
2602;SDS011;1311;47.966;7.958;2023-09-30T04:12:26;8.20;;;2.77;;
2602;SDS011;1311;47.966;7.958;2023-09-30T04:14:55;7.17;;;3.70;;
2602;SDS011;1311;47.966;7.958;2023-09-30T04:17:22;6.60;;;3.83;;
2602;SDS011;1311;47.966;7.958;2023-09-30T04:19:48;5.60;;;3.83;;
2602;SDS011;1311;47.966;7.958;2023-09-30T04:22:16;6.13;;;3.37;;
2602;SDS011;1311;47.966;7.958;2023-09-30T04:24:43;7.67;;;4.13;;
2602;SDS011;1311;47.966;7.958;2023-09-30T04:27:10;7.13;;;3.80;;
2602;SDS011;1311;47.966;7.958;2023-09-30T04:29:37;8.77;;;3.80;;
2602;SDS011;1311;47.966;7.958;2023-09-30T04:32:05;6.17;;;3.20;;
2602;SDS011;1311;47.966;7.958;2023-09-30T04:34:32;7.87;;;4.07;;
2602;SDS011;1311;47.966;7.958;2023-09-30T04:36:59;5.93;;;3.40;;
2602;SDS011;1311;47.966;7.958;2023-09-30T04:39:26;7.57;;;3.93;;
2602;SDS011;1311;47.966;7.958;2023-09-30T04:41:53;6.00;;;3.90;;
2602;SDS011;1311;47.966;7.958;2023-09-30T04:44:20;7.50;;;3.40;;
2602;SDS011;1311;47.966;7.958;2023-09-30T04:46:47;5.67;;;3.50;;
2602;SDS011;1311;47.966;7.958;2023-09-30T04:49:16;6.33;;;3.40;;
2602;SDS011;1311;47.966;7.958;2023-09-30T04:51:42;5.70;;;3.50;;
2602;SDS011;1311;47.966;7.958;2023-09-30T04:54:09;4.00;;;3.07;;
2602;SDS011;1311;47.966;7.958;2023-09-30T04:56:36;5.83;;;3.60;;
2602;SDS011;1311;47.966;7.958;2023-09-30T04:59:03;7.23;;;3.80;;
2602;SDS011;1311;47.966;7.958;2023-09-30T05:01:31;7.30;;;3.50;;
2602;SDS011;1311;47.966;7.958;2023-09-30T05:03:58;6.07;;;3.63;;
2602;SDS011;1311;47.966;7.958;2023-09-30T05:06:26;8.10;;;4.10;;
2602;SDS011;1311;47.966;7.958;2023-09-30T05:08:53;6.33;;;3.60;;
2602;SDS011;1311;47.966;7.958;2023-09-30T05:11:21;8.67;;;4.00;;
2602;SDS011;1311;47.966;7.958;2023-09-30T05:13:48;6.97;;;2.90;;
2602;SDS011;1311;47.966;7.958;2023-09-30T05:16:14;8.17;;;3.50;;
2602;SDS011;1311;47.966;7.958;2023-09-30T05:18:41;7.37;;;3.10;;
2602;SDS011;1311;47.966;7.958;2023-09-30T05:21:08;7.10;;;3.87;;
2602;SDS011;1311;47.966;7.958;2023-09-30T05:23:36;6.50;;;4.13;;
2602;SDS011;1311;47.966;7.958;2023-09-30T05:26:03;6.20;;;3.50;;
2602;SDS011;1311;47.966;7.958;2023-09-30T05:28:31;7.47;;;3.80;;
2602;SDS011;1311;47.966;7.958;2023-09-30T05:30:58;8.10;;;4.07;;
2602;SDS011;1311;47.966;7.958;2023-09-30T05:33:25;5.67;;;3.30;;
2602;SDS011;1311;47.966;7.958;2023-09-30T05:35:53;6.87;;;3.63;;
2602;SDS011;1311;47.966;7.958;2023-09-30T05:38:20;6.13;;;3.20;;
2602;SDS011;1311;47.966;7.958;2023-09-30T05:40:49;5.10;;;3.47;;
2602;SDS011;1311;47.966;7.958;2023-09-30T05:43:16;5.93;;;3.47;;
2602;SDS011;1311;47.966;7.958;2023-09-30T05:45:43;8.60;;;3.77;;
2602;SDS011;1311;47.966;7.958;2023-09-30T05:48:14;8.63;;;3.20;;
2602;SDS011;1311;47.966;7.958;2023-09-30T05:50:41;5.20;;;3.73;;
2602;SDS011;1311;47.966;7.958;2023-09-30T05:53:08;10.33;;;4.27;;
2602;SDS011;1311;47.966;7.958;2023-09-30T05:55:35;6.83;;;3.90;;
2602;SDS011;1311;47.966;7.958;2023-09-30T05:58:05;7.30;;;4.20;;
2602;SDS011;1311;47.966;7.958;2023-09-30T06:00:31;9.23;;;4.10;;
2602;SDS011;1311;47.966;7.958;2023-09-30T06:03:00;8.53;;;4.20;;
2602;SDS011;1311;47.966;7.958;2023-09-30T06:05:29;8.97;;;4.47;;
2602;SDS011;1311;47.966;7.958;2023-09-30T06:07:57;5.93;;;3.93;;
2602;SDS011;1311;47.966;7.958;2023-09-30T06:10:25;6.97;;;4.40;;
2602;SDS011;1311;47.966;7.958;2023-09-30T06:12:52;9.10;;;4.37;;
2602;SDS011;1311;47.966;7.958;2023-09-30T06:15:21;7.10;;;4.20;;
2602;SDS011;1311;47.966;7.958;2023-09-30T06:17:50;8.20;;;4.13;;
2602;SDS011;1311;47.966;7.958;2023-09-30T06:20:18;5.30;;;3.70;;
2602;SDS011;1311;47.966;7.958;2023-09-30T06:22:47;6.30;;;3.63;;
2602;SDS011;1311;47.966;7.958;2023-09-30T06:25:15;8.20;;;3.67;;
2602;SDS011;1311;47.966;7.958;2023-09-30T06:27:42;5.93;;;4.00;;
2602;SDS011;1311;47.966;7.958;2023-09-30T06:30:09;5.50;;;4.10;;
2602;SDS011;1311;47.966;7.958;2023-09-30T06:32:38;4.87;;;3.53;;
2602;SDS011;1311;47.966;7.958;2023-09-30T06:35:07;7.80;;;3.97;;
2602;SDS011;1311;47.966;7.958;2023-09-30T06:37:35;6.33;;;3.67;;
2602;SDS011;1311;47.966;7.958;2023-09-30T06:40:03;7.90;;;3.57;;
2602;SDS011;1311;47.966;7.958;2023-09-30T06:42:30;7.57;;;3.80;;
2602;SDS011;1311;47.966;7.958;2023-09-30T06:44:57;7.80;;;3.40;;
2602;SDS011;1311;47.966;7.958;2023-09-30T06:47:24;5.43;;;3.53;;
2602;SDS011;1311;47.966;7.958;2023-09-30T06:49:52;4.67;;;3.07;;
2602;SDS011;1311;47.966;7.958;2023-09-30T06:52:19;4.73;;;3.07;;
2602;SDS011;1311;47.966;7.958;2023-09-30T06:54:46;6.80;;;3.43;;
2602;SDS011;1311;47.966;7.958;2023-09-30T06:57:12;5.90;;;3.57;;
2602;SDS011;1311;47.966;7.958;2023-09-30T06:59:39;5.73;;;3.20;;
2602;SDS011;1311;47.966;7.958;2023-09-30T07:02:06;6.40;;;3.33;;
2602;SDS011;1311;47.966;7.958;2023-09-30T07:04:32;6.53;;;3.43;;
2602;SDS011;1311;47.966;7.958;2023-09-30T07:07:00;6.20;;;3.30;;
2602;SDS011;1311;47.966;7.958;2023-09-30T07:09:27;5.00;;;3.00;;
2602;SDS011;1311;47.966;7.958;2023-09-30T07:11:55;7.40;;;3.77;;
2602;SDS011;1311;47.966;7.958;2023-09-30T07:14:22;7.13;;;4.53;;
2602;SDS011;1311;47.966;7.958;2023-09-30T07:16:48;4.80;;;3.40;;
2602;SDS011;1311;47.966;7.958;2023-09-30T07:19:15;6.20;;;3.70;;
2602;SDS011;1311;47.966;7.958;2023-09-30T07:21:42;5.33;;;3.30;;
2602;SDS011;1311;47.966;7.958;2023-09-30T07:24:10;5.10;;;3.23;;
2602;SDS011;1311;47.966;7.958;2023-09-30T07:26:37;5.77;;;3.27;;
2602;SDS011;1311;47.966;7.958;2023-09-30T07:29:04;7.30;;;4.03;;
2602;SDS011;1311;47.966;7.958;2023-09-30T07:31:33;4.60;;;3.33;;
2602;SDS011;1311;47.966;7.958;2023-09-30T07:34:01;7.97;;;3.60;;
2602;SDS011;1311;47.966;7.958;2023-09-30T07:36:28;7.43;;;4.20;;
2602;SDS011;1311;47.966;7.958;2023-09-30T07:38:54;6.30;;;3.70;;
2602;SDS011;1311;47.966;7.958;2023-09-30T07:41:23;6.70;;;4.20;;
2602;SDS011;1311;47.966;7.958;2023-09-30T07:43:49;7.17;;;4.37;;
2602;SDS011;1311;47.966;7.958;2023-09-30T07:46:16;7.33;;;4.23;;
2602;SDS011;1311;47.966;7.958;2023-09-30T07:48:43;7.10;;;3.67;;
2602;SDS011;1311;47.966;7.958;2023-09-30T07:51:13;8.00;;;3.70;;
2602;SDS011;1311;47.966;7.958;2023-09-30T07:53:40;9.20;;;5.80;;
2602;SDS011;1311;47.966;7.958;2023-09-30T07:56:07;10.37;;;5.67;;
2602;SDS011;1311;47.966;7.958;2023-09-30T07:58:35;8.17;;;4.63;;
2602;SDS011;1311;47.966;7.958;2023-09-30T08:01:01;8.53;;;4.40;;
2602;SDS011;1311;47.966;7.958;2023-09-30T08:03:29;10.97;;;5.07;;
2602;SDS011;1311;47.966;7.958;2023-09-30T08:05:56;6.53;;;4.20;;
2602;SDS011;1311;47.966;7.958;2023-09-30T08:08:23;7.10;;;4.07;;
2602;SDS011;1311;47.966;7.958;2023-09-30T08:10:50;6.90;;;4.00;;
2602;SDS011;1311;47.966;7.958;2023-09-30T08:13:20;6.00;;;3.93;;
2602;SDS011;1311;47.966;7.958;2023-09-30T08:15:49;7.07;;;3.97;;
2602;SDS011;1311;47.966;7.958;2023-09-30T08:18:16;8.93;;;4.60;;
2602;SDS011;1311;47.966;7.958;2023-09-30T08:20:43;9.40;;;4.37;;
2602;SDS011;1311;47.966;7.958;2023-09-30T08:23:10;5.73;;;3.33;;
2602;SDS011;1311;47.966;7.958;2023-09-30T08:25:37;9.23;;;5.10;;
2602;SDS011;1311;47.966;7.958;2023-09-30T08:28:04;5.93;;;3.90;;
2602;SDS011;1311;47.966;7.958;2023-09-30T08:30:32;6.63;;;3.90;;
2602;SDS011;1311;47.966;7.958;2023-09-30T08:33:00;5.53;;;3.30;;
2602;SDS011;1311;47.966;7.958;2023-09-30T08:35:29;9.57;;;4.13;;
2602;SDS011;1311;47.966;7.958;2023-09-30T08:37:56;4.97;;;3.50;;
2602;SDS011;1311;47.966;7.958;2023-09-30T08:40:30;4.93;;;3.47;;
2602;SDS011;1311;47.966;7.958;2023-09-30T08:43:36;7.13;;;3.50;;
2602;SDS011;1311;47.966;7.958;2023-09-30T08:46:04;7.30;;;3.77;;
2602;SDS011;1311;47.966;7.958;2023-09-30T08:48:33;6.93;;;3.50;;
2602;SDS011;1311;47.966;7.958;2023-09-30T08:51:01;7.50;;;4.00;;
2602;SDS011;1311;47.966;7.958;2023-09-30T08:53:28;7.27;;;4.13;;
2602;SDS011;1311;47.966;7.958;2023-09-30T08:55:56;7.80;;;3.67;;
2602;SDS011;1311;47.966;7.958;2023-09-30T08:58:26;8.10;;;3.83;;
2602;SDS011;1311;47.966;7.958;2023-09-30T09:00:53;6.43;;;3.63;;
2602;SDS011;1311;47.966;7.958;2023-09-30T09:03:21;7.70;;;3.80;;
2602;SDS011;1311;47.966;7.958;2023-09-30T09:05:54;7.10;;;3.87;;
2602;SDS011;1311;47.966;7.958;2023-09-30T09:08:21;6.00;;;3.33;;
2602;SDS011;1311;47.966;7.958;2023-09-30T09:10:58;7.77;;;4.10;;
2602;SDS011;1311;47.966;7.958;2023-09-30T09:13:28;8.63;;;4.00;;
2602;SDS011;1311;47.966;7.958;2023-09-30T09:16:10;8.20;;;3.30;;
2602;SDS011;1311;47.966;7.958;2023-09-30T09:18:37;6.23;;;3.50;;
2602;SDS011;1311;47.966;7.958;2023-09-30T09:21:10;6.50;;;3.37;;
2602;SDS011;1311;47.966;7.958;2023-09-30T09:23:39;6.13;;;3.60;;
2602;SDS011;1311;47.966;7.958;2023-09-30T09:26:07;7.03;;;3.90;;
2602;SDS011;1311;47.966;7.958;2023-09-30T09:28:35;10.00;;;4.00;;
2602;SDS011;1311;47.966;7.958;2023-09-30T09:31:04;7.43;;;3.30;;
2602;SDS011;1311;47.966;7.958;2023-09-30T09:33:47;7.17;;;3.03;;
2602;SDS011;1311;47.966;7.958;2023-09-30T09:36:15;6.63;;;3.40;;
2602;SDS011;1311;47.966;7.958;2023-09-30T09:38:44;6.57;;;2.73;;
2602;SDS011;1311;47.966;7.958;2023-09-30T09:41:13;5.33;;;3.23;;
2602;SDS011;1311;47.966;7.958;2023-09-30T09:43:40;5.77;;;2.70;;
2602;SDS011;1311;47.966;7.958;2023-09-30T09:46:08;5.30;;;2.57;;
2602;SDS011;1311;47.966;7.958;2023-09-30T09:48:35;6.00;;;2.97;;
2602;SDS011;1311;47.966;7.958;2023-09-30T09:51:06;6.67;;;2.87;;
2602;SDS011;1311;47.966;7.958;2023-09-30T09:53:40;5.53;;;3.00;;
2602;SDS011;1311;47.966;7.958;2023-09-30T09:56:08;6.63;;;3.30;;
2602;SDS011;1311;47.966;7.958;2023-09-30T09:58:37;7.23;;;2.90;;
2602;SDS011;1311;47.966;7.958;2023-09-30T10:01:07;6.77;;;3.30;;
2602;SDS011;1311;47.966;7.958;2023-09-30T10:03:35;7.87;;;3.90;;
2602;SDS011;1311;47.966;7.958;2023-09-30T10:06:02;6.57;;;3.37;;
2602;SDS011;1311;47.966;7.958;2023-09-30T10:08:31;5.50;;;3.30;;
2602;SDS011;1311;47.966;7.958;2023-09-30T10:11:02;7.27;;;3.53;;
2602;SDS011;1311;47.966;7.958;2023-09-30T10:19:13;7.50;;;4.00;;
2602;SDS011;1311;47.966;7.958;2023-09-30T10:24:42;9.63;;;4.63;;
2602;SDS011;1311;47.966;7.958;2023-09-30T10:27:28;5.57;;;3.30;;
2602;SDS011;1311;47.966;7.958;2023-09-30T10:29:57;9.10;;;4.07;;
2602;SDS011;1311;47.966;7.958;2023-09-30T10:38:37;8.50;;;3.63;;
2602;SDS011;1311;47.966;7.958;2023-09-30T10:41:09;7.23;;;4.37;;
2602;SDS011;1311;47.966;7.958;2023-09-30T10:43:39;11.10;;;4.70;;
2602;SDS011;1311;47.966;7.958;2023-09-30T10:49:16;8.73;;;4.20;;
2602;SDS011;1311;47.966;7.958;2023-09-30T10:51:56;9.63;;;4.97;;
2602;SDS011;1311;47.966;7.958;2023-09-30T10:54:25;10.10;;;4.50;;
2602;SDS011;1311;47.966;7.958;2023-09-30T10:56:53;8.87;;;4.57;;
2602;SDS011;1311;47.966;7.958;2023-09-30T10:59:22;8.37;;;4.23;;
2602;SDS011;1311;47.966;7.958;2023-09-30T11:01:50;9.33;;;5.07;;
2602;SDS011;1311;47.966;7.958;2023-09-30T11:04:18;7.23;;;3.77;;
2602;SDS011;1311;47.966;7.958;2023-09-30T11:06:45;9.70;;;5.03;;
2602;SDS011;1311;47.966;7.958;2023-09-30T11:09:15;10.13;;;4.80;;
2602;SDS011;1311;47.966;7.958;2023-09-30T11:11:43;10.10;;;4.77;;
2602;SDS011;1311;47.966;7.958;2023-09-30T11:14:17;11.10;;;5.40;;
2602;SDS011;1311;47.966;7.958;2023-09-30T11:16:46;9.00;;;4.87;;
2602;SDS011;1311;47.966;7.958;2023-09-30T11:19:14;10.47;;;5.37;;
2602;SDS011;1311;47.966;7.958;2023-09-30T11:21:41;9.10;;;4.20;;
2602;SDS011;1311;47.966;7.958;2023-09-30T11:24:10;7.20;;;4.47;;
2602;SDS011;1311;47.966;7.958;2023-09-30T11:26:36;7.40;;;4.00;;
2602;SDS011;1311;47.966;7.958;2023-09-30T11:29:05;7.10;;;4.40;;
2602;SDS011;1311;47.966;7.958;2023-09-30T11:31:33;9.07;;;5.00;;
2602;SDS011;1311;47.966;7.958;2023-09-30T11:34:04;10.47;;;4.47;;
2602;SDS011;1311;47.966;7.958;2023-09-30T11:36:32;8.83;;;4.40;;
2602;SDS011;1311;47.966;7.958;2023-09-30T11:39:00;8.50;;;4.03;;
2602;SDS011;1311;47.966;7.958;2023-09-30T11:41:34;11.07;;;4.30;;
2602;SDS011;1311;47.966;7.958;2023-09-30T11:44:04;6.77;;;4.07;;
2602;SDS011;1311;47.966;7.958;2023-09-30T11:46:32;8.33;;;3.90;;
2602;SDS011;1311;47.966;7.958;2023-09-30T11:49:00;8.30;;;4.77;;
2602;SDS011;1311;47.966;7.958;2023-09-30T11:51:29;7.83;;;4.90;;
2602;SDS011;1311;47.966;7.958;2023-09-30T11:53:56;9.83;;;4.80;;
2602;SDS011;1311;47.966;7.958;2023-09-30T11:56:23;11.60;;;5.50;;
2602;SDS011;1311;47.966;7.958;2023-09-30T11:58:54;7.43;;;4.50;;
2602;SDS011;1311;47.966;7.958;2023-09-30T12:01:21;8.20;;;4.23;;
2602;SDS011;1311;47.966;7.958;2023-09-30T12:03:50;8.70;;;5.20;;
2602;SDS011;1311;47.966;7.958;2023-09-30T12:06:18;9.80;;;4.63;;
2602;SDS011;1311;47.966;7.958;2023-09-30T12:08:46;8.83;;;4.53;;
2602;SDS011;1311;47.966;7.958;2023-09-30T12:11:13;7.40;;;4.37;;
2602;SDS011;1311;47.966;7.958;2023-09-30T12:13:41;8.23;;;5.17;;
2602;SDS011;1311;47.966;7.958;2023-09-30T12:16:09;8.13;;;4.73;;
2602;SDS011;1311;47.966;7.958;2023-09-30T12:18:36;8.37;;;5.00;;
2602;SDS011;1311;47.966;7.958;2023-09-30T12:21:03;7.10;;;4.80;;
2602;SDS011;1311;47.966;7.958;2023-09-30T12:23:31;7.50;;;4.53;;
2602;SDS011;1311;47.966;7.958;2023-09-30T12:25:59;7.73;;;4.77;;
2602;SDS011;1311;47.966;7.958;2023-09-30T12:28:30;9.60;;;4.50;;
2602;SDS011;1311;47.966;7.958;2023-09-30T12:30:58;10.37;;;5.00;;
2602;SDS011;1311;47.966;7.958;2023-09-30T12:33:26;8.20;;;5.10;;
2602;SDS011;1311;47.966;7.958;2023-09-30T12:35:53;8.20;;;5.03;;
2602;SDS011;1311;47.966;7.958;2023-09-30T12:38:20;9.63;;;4.90;;
2602;SDS011;1311;47.966;7.958;2023-09-30T12:40:46;9.10;;;4.73;;
2602;SDS011;1311;47.966;7.958;2023-09-30T12:43:15;10.23;;;5.07;;
2602;SDS011;1311;47.966;7.958;2023-09-30T12:45:42;11.30;;;5.10;;
2602;SDS011;1311;47.966;7.958;2023-09-30T12:48:09;9.60;;;4.80;;
2602;SDS011;1311;47.966;7.958;2023-09-30T12:50:35;8.03;;;4.70;;
2602;SDS011;1311;47.966;7.958;2023-09-30T12:53:02;9.20;;;5.27;;
2602;SDS011;1311;47.966;7.958;2023-09-30T12:55:30;10.07;;;5.53;;
2602;SDS011;1311;47.966;7.958;2023-09-30T12:57:56;9.10;;;5.20;;
2602;SDS011;1311;47.966;7.958;2023-09-30T13:00:26;8.83;;;5.17;;
2602;SDS011;1311;47.966;7.958;2023-09-30T13:02:55;8.53;;;4.50;;
2602;SDS011;1311;47.966;7.958;2023-09-30T13:05:23;8.60;;;4.50;;
2602;SDS011;1311;47.966;7.958;2023-09-30T13:07:50;8.77;;;5.27;;
2602;SDS011;1311;47.966;7.958;2023-09-30T13:10:17;8.70;;;4.77;;
2602;SDS011;1311;47.966;7.958;2023-09-30T13:12:45;11.07;;;5.20;;
2602;SDS011;1311;47.966;7.958;2023-09-30T13:15:11;10.67;;;4.80;;
2602;SDS011;1311;47.966;7.958;2023-09-30T13:17:40;8.57;;;4.87;;
2602;SDS011;1311;47.966;7.958;2023-09-30T13:20:08;8.47;;;5.50;;
2602;SDS011;1311;47.966;7.958;2023-09-30T13:22:37;8.80;;;5.00;;
2602;SDS011;1311;47.966;7.958;2023-09-30T13:25:04;9.40;;;4.93;;
2602;SDS011;1311;47.966;7.958;2023-09-30T13:27:31;7.20;;;4.73;;
2602;SDS011;1311;47.966;7.958;2023-09-30T13:29:58;9.50;;;5.47;;
2602;SDS011;1311;47.966;7.958;2023-09-30T13:32:26;9.00;;;5.33;;
2602;SDS011;1311;47.966;7.958;2023-09-30T13:34:54;8.83;;;5.00;;
2602;SDS011;1311;47.966;7.958;2023-09-30T13:37:21;9.37;;;5.17;;
2602;SDS011;1311;47.966;7.958;2023-09-30T13:39:54;10.63;;;5.50;;
2602;SDS011;1311;47.966;7.958;2023-09-30T13:42:21;8.80;;;5.07;;
2602;SDS011;1311;47.966;7.958;2023-09-30T13:44:48;8.13;;;5.00;;
2602;SDS011;1311;47.966;7.958;2023-09-30T13:47:15;11.40;;;5.70;;
2602;SDS011;1311;47.966;7.958;2023-09-30T13:49:41;8.50;;;5.03;;
2602;SDS011;1311;47.966;7.958;2023-09-30T13:52:09;9.30;;;5.03;;
2602;SDS011;1311;47.966;7.958;2023-09-30T13:54:36;10.43;;;5.40;;
2602;SDS011;1311;47.966;7.958;2023-09-30T13:57:03;10.47;;;5.67;;
2602;SDS011;1311;47.966;7.958;2023-09-30T13:59:33;10.83;;;5.33;;
2602;SDS011;1311;47.966;7.958;2023-09-30T14:02:00;10.03;;;5.63;;
2602;SDS011;1311;47.966;7.958;2023-09-30T14:04:27;10.60;;;5.50;;
2602;SDS011;1311;47.966;7.958;2023-09-30T14:06:56;11.90;;;5.60;;
2602;SDS011;1311;47.966;7.958;2023-09-30T14:09:26;10.17;;;5.30;;
2602;SDS011;1311;47.966;7.958;2023-09-30T14:11:53;8.97;;;4.90;;
2602;SDS011;1311;47.966;7.958;2023-09-30T14:14:19;9.97;;;5.53;;
2602;SDS011;1311;47.966;7.958;2023-09-30T14:16:46;10.37;;;5.77;;
2602;SDS011;1311;47.966;7.958;2023-09-30T14:19:13;10.47;;;5.10;;
2602;SDS011;1311;47.966;7.958;2023-09-30T14:21:40;13.00;;;5.90;;
2602;SDS011;1311;47.966;7.958;2023-09-30T14:24:07;9.03;;;5.00;;
2602;SDS011;1311;47.966;7.958;2023-09-30T14:26:35;9.27;;;5.33;;
2602;SDS011;1311;47.966;7.958;2023-09-30T14:29:02;9.93;;;5.40;;
2602;SDS011;1311;47.966;7.958;2023-09-30T14:31:29;10.47;;;5.73;;
2602;SDS011;1311;47.966;7.958;2023-09-30T14:33:56;8.80;;;5.30;;
2602;SDS011;1311;47.966;7.958;2023-09-30T14:36:23;11.70;;;6.20;;
2602;SDS011;1311;47.966;7.958;2023-09-30T14:38:50;11.10;;;6.80;;
2602;SDS011;1311;47.966;7.958;2023-09-30T14:41:16;11.33;;;6.10;;
2602;SDS011;1311;47.966;7.958;2023-09-30T14:43:45;13.27;;;6.73;;
2602;SDS011;1311;47.966;7.958;2023-09-30T14:46:12;9.37;;;5.27;;
2602;SDS011;1311;47.966;7.958;2023-09-30T14:48:38;12.73;;;6.67;;
2602;SDS011;1311;47.966;7.958;2023-09-30T14:51:07;8.83;;;5.50;;
2602;SDS011;1311;47.966;7.958;2023-09-30T14:53:34;10.23;;;5.47;;
2602;SDS011;1311;47.966;7.958;2023-09-30T14:56:01;7.07;;;4.43;;
2602;SDS011;1311;47.966;7.958;2023-09-30T14:58:27;9.90;;;5.50;;
2602;SDS011;1311;47.966;7.958;2023-09-30T15:00:55;11.83;;;8.13;;
2602;SDS011;1311;47.966;7.958;2023-09-30T15:03:23;11.83;;;5.73;;
2602;SDS011;1311;47.966;7.958;2023-09-30T15:05:56;12.37;;;5.77;;
2602;SDS011;1311;47.966;7.958;2023-09-30T15:08:24;9.20;;;5.50;;
2602;SDS011;1311;47.966;7.958;2023-09-30T15:10:51;11.57;;;5.83;;
2602;SDS011;1311;47.966;7.958;2023-09-30T15:13:19;12.70;;;6.30;;
2602;SDS011;1311;47.966;7.958;2023-09-30T15:15:46;8.17;;;4.90;;
2602;SDS011;1311;47.966;7.958;2023-09-30T15:18:14;12.23;;;5.50;;
2602;SDS011;1311;47.966;7.958;2023-09-30T15:20:41;10.70;;;6.00;;
2602;SDS011;1311;47.966;7.958;2023-09-30T15:23:08;10.10;;;5.93;;
2602;SDS011;1311;47.966;7.958;2023-09-30T15:25:39;9.80;;;5.30;;
2602;SDS011;1311;47.966;7.958;2023-09-30T15:28:06;10.63;;;5.47;;
2602;SDS011;1311;47.966;7.958;2023-09-30T15:30:33;11.50;;;4.93;;
2602;SDS011;1311;47.966;7.958;2023-09-30T15:33:00;12.37;;;5.90;;
2602;SDS011;1311;47.966;7.958;2023-09-30T15:35:29;12.03;;;5.70;;